sensor_id;sensor_type;location;lat;lon;timestamp;temperature;humidity
5130;DHT22;2583;50.946;6.954;2022-08-21T00:01:42;19.00;99.90
5130;DHT22;2583;50.946;6.954;2022-08-21T00:04:10;19.00;99.90
5130;DHT22;2583;50.946;6.954;2022-08-21T00:06:40;19.00;99.90
5130;DHT22;2583;50.946;6.954;2022-08-21T00:09:08;18.90;99.90
5130;DHT22;2583;50.946;6.954;2022-08-21T00:11:36;19.00;99.90
5130;DHT22;2583;50.946;6.954;2022-08-21T00:14:05;18.90;99.90
5130;DHT22;2583;50.946;6.954;2022-08-21T00:16:33;18.90;99.90
5130;DHT22;2583;50.946;6.954;2022-08-21T00:19:00;18.90;99.90
5130;DHT22;2583;50.946;6.954;2022-08-21T00:21:27;18.90;99.90
5130;DHT22;2583;50.946;6.954;2022-08-21T00:23:54;18.90;99.90
5130;DHT22;2583;50.946;6.954;2022-08-21T00:26:20;18.80;99.90
5130;DHT22;2583;50.946;6.954;2022-08-21T00:28:47;18.80;99.90
5130;DHT22;2583;50.946;6.954;2022-08-21T00:31:16;18.70;99.90
5130;DHT22;2583;50.946;6.954;2022-08-21T00:33:43;18.70;99.90
5130;DHT22;2583;50.946;6.954;2022-08-21T00:36:11;18.70;99.90
5130;DHT22;2583;50.946;6.954;2022-08-21T00:38:38;18.70;99.90
5130;DHT22;2583;50.946;6.954;2022-08-21T00:41:08;18.70;99.90
5130;DHT22;2583;50.946;6.954;2022-08-21T00:43:55;18.70;99.90
5130;DHT22;2583;50.946;6.954;2022-08-21T00:46:22;18.60;99.90
5130;DHT22;2583;50.946;6.954;2022-08-21T00:48:54;18.70;99.90
5130;DHT22;2583;50.946;6.954;2022-08-21T00:52:00;18.60;99.90
5130;DHT22;2583;50.946;6.954;2022-08-21T00:54:22;18.60;99.90
5130;DHT22;2583;50.946;6.954;2022-08-21T00:56:58;18.60;99.90
5130;DHT22;2583;50.946;6.954;2022-08-21T00:59:28;18.50;99.90
5130;DHT22;2583;50.946;6.954;2022-08-21T01:01:55;18.60;99.90
5130;DHT22;2583;50.946;6.954;2022-08-21T01:04:23;18.60;99.90
5130;DHT22;2583;50.946;6.954;2022-08-21T01:06:50;18.50;99.90
5130;DHT22;2583;50.946;6.954;2022-08-21T01:09:18;18.50;99.90
5130;DHT22;2583;50.946;6.954;2022-08-21T01:11:45;18.50;99.90
5130;DHT22;2583;50.946;6.954;2022-08-21T01:14:13;18.50;99.90
5130;DHT22;2583;50.946;6.954;2022-08-21T01:16:43;18.50;99.90
5130;DHT22;2583;50.946;6.954;2022-08-21T01:19:11;18.50;99.90
5130;DHT22;2583;50.946;6.954;2022-08-21T01:21:38;18.50;99.90
5130;DHT22;2583;50.946;6.954;2022-08-21T01:24:06;18.40;99.90
5130;DHT22;2583;50.946;6.954;2022-08-21T01:26:35;18.40;99.90
5130;DHT22;2583;50.946;6.954;2022-08-21T01:31:51;18.50;99.90
5130;DHT22;2583;50.946;6.954;2022-08-21T01:34:18;18.40;99.90
5130;DHT22;2583;50.946;6.954;2022-08-21T01:36:46;18.30;99.90
5130;DHT22;2583;50.946;6.954;2022-08-21T01:39:13;18.40;99.90
5130;DHT22;2583;50.946;6.954;2022-08-21T01:41:41;18.30;99.90
5130;DHT22;2583;50.946;6.954;2022-08-21T01:44:08;18.30;99.90
5130;DHT22;2583;50.946;6.954;2022-08-21T01:46:35;18.40;99.90
5130;DHT22;2583;50.946;6.954;2022-08-21T01:49:04;18.30;99.90
5130;DHT22;2583;50.946;6.954;2022-08-21T01:51:31;18.30;99.90
5130;DHT22;2583;50.946;6.954;2022-08-21T01:53:58;18.40;99.90
5130;DHT22;2583;50.946;6.954;2022-08-21T01:56:25;18.30;99.90
5130;DHT22;2583;50.946;6.954;2022-08-21T01:58:53;18.30;99.90
5130;DHT22;2583;50.946;6.954;2022-08-21T02:01:20;18.30;99.90
5130;DHT22;2583;50.946;6.954;2022-08-21T02:03:46;18.40;99.90
5130;DHT22;2583;50.946;6.954;2022-08-21T02:06:15;18.30;99.90
5130;DHT22;2583;50.946;6.954;2022-08-21T02:08:45;18.40;99.90
5130;DHT22;2583;50.946;6.954;2022-08-21T02:11:11;18.40;99.90
5130;DHT22;2583;50.946;6.954;2022-08-21T02:13:38;18.30;99.90
5130;DHT22;2583;50.946;6.954;2022-08-21T02:16:05;18.30;99.90
5130;DHT22;2583;50.946;6.954;2022-08-21T02:18:35;18.30;99.90
5130;DHT22;2583;50.946;6.954;2022-08-21T02:21:02;18.30;99.90
5130;DHT22;2583;50.946;6.954;2022-08-21T02:23:30;18.30;99.90
5130;DHT22;2583;50.946;6.954;2022-08-21T02:25:58;18.20;99.90
5130;DHT22;2583;50.946;6.954;2022-08-21T02:28:26;18.20;99.90
5130;DHT22;2583;50.946;6.954;2022-08-21T02:30:53;18.20;99.90
5130;DHT22;2583;50.946;6.954;2022-08-21T02:33:22;18.10;99.90
5130;DHT22;2583;50.946;6.954;2022-08-21T02:35:49;18.20;99.90
5130;DHT22;2583;50.946;6.954;2022-08-21T02:38:20;18.10;99.90
5130;DHT22;2583;50.946;6.954;2022-08-21T02:40:48;18.10;99.90
5130;DHT22;2583;50.946;6.954;2022-08-21T02:43:17;18.10;99.90
5130;DHT22;2583;50.946;6.954;2022-08-21T02:45:45;18.00;99.90
5130;DHT22;2583;50.946;6.954;2022-08-21T02:48:15;17.90;99.90
5130;DHT22;2583;50.946;6.954;2022-08-21T02:50:48;17.90;99.90
5130;DHT22;2583;50.946;6.954;2022-08-21T02:53:17;17.80;99.90
5130;DHT22;2583;50.946;6.954;2022-08-21T02:55:46;17.90;99.90
5130;DHT22;2583;50.946;6.954;2022-08-21T02:58:16;17.80;99.90
5130;DHT22;2583;50.946;6.954;2022-08-21T03:00:44;17.70;99.90
5130;DHT22;2583;50.946;6.954;2022-08-21T03:03:11;17.80;99.90
5130;DHT22;2583;50.946;6.954;2022-08-21T03:05:40;17.70;99.90
5130;DHT22;2583;50.946;6.954;2022-08-21T03:08:09;17.70;99.90
5130;DHT22;2583;50.946;6.954;2022-08-21T03:10:38;17.70;99.90
5130;DHT22;2583;50.946;6.954;2022-08-21T03:13:07;17.70;99.90
5130;DHT22;2583;50.946;6.954;2022-08-21T03:15:34;17.70;99.90
5130;DHT22;2583;50.946;6.954;2022-08-21T03:18:02;17.70;99.90
5130;DHT22;2583;50.946;6.954;2022-08-21T03:20:30;17.60;99.90
5130;DHT22;2583;50.946;6.954;2022-08-21T03:22:59;17.60;99.90
5130;DHT22;2583;50.946;6.954;2022-08-21T03:25:28;17.60;99.90
5130;DHT22;2583;50.946;6.954;2022-08-21T03:28:12;17.60;99.90
5130;DHT22;2583;50.946;6.954;2022-08-21T03:30:45;17.60;99.90
5130;DHT22;2583;50.946;6.954;2022-08-21T03:33:13;17.60;99.90
5130;DHT22;2583;50.946;6.954;2022-08-21T03:35:43;17.60;99.90
5130;DHT22;2583;50.946;6.954;2022-08-21T03:38:11;17.60;99.90
5130;DHT22;2583;50.946;6.954;2022-08-21T03:40:40;17.60;99.90
5130;DHT22;2583;50.946;6.954;2022-08-21T03:43:07;17.60;99.90
5130;DHT22;2583;50.946;6.954;2022-08-21T03:45:36;17.50;99.90
5130;DHT22;2583;50.946;6.954;2022-08-21T03:48:05;17.50;99.90
5130;DHT22;2583;50.946;6.954;2022-08-21T03:50:36;17.50;99.90
5130;DHT22;2583;50.946;6.954;2022-08-21T03:53:10;17.50;99.90
5130;DHT22;2583;50.946;6.954;2022-08-21T03:55:45;17.50;99.90
5130;DHT22;2583;50.946;6.954;2022-08-21T03:58:13;17.40;99.90
5130;DHT22;2583;50.946;6.954;2022-08-21T04:00:46;17.40;99.90
5130;DHT22;2583;50.946;6.954;2022-08-21T04:03:14;17.30;99.90
5130;DHT22;2583;50.946;6.954;2022-08-21T04:05:41;17.30;99.90
5130;DHT22;2583;50.946;6.954;2022-08-21T04:08:08;17.30;99.90
5130;DHT22;2583;50.946;6.954;2022-08-21T04:10:37;17.40;99.90
5130;DHT22;2583;50.946;6.954;2022-08-21T04:13:05;17.40;99.90
5130;DHT22;2583;50.946;6.954;2022-08-21T04:15:34;17.30;99.90
5130;DHT22;2583;50.946;6.954;2022-08-21T04:18:01;17.30;99.90
5130;DHT22;2583;50.946;6.954;2022-08-21T04:20:28;17.30;99.90
5130;DHT22;2583;50.946;6.954;2022-08-21T04:22:55;17.40;99.90
5130;DHT22;2583;50.946;6.954;2022-08-21T04:25:23;17.30;99.90
5130;DHT22;2583;50.946;6.954;2022-08-21T04:27:52;17.30;99.90
5130;DHT22;2583;50.946;6.954;2022-08-21T04:30:19;17.30;99.90
5130;DHT22;2583;50.946;6.954;2022-08-21T04:32:48;17.30;99.90
5130;DHT22;2583;50.946;6.954;2022-08-21T04:35:18;17.30;99.90
5130;DHT22;2583;50.946;6.954;2022-08-21T04:37:45;17.20;99.90
5130;DHT22;2583;50.946;6.954;2022-08-21T04:40:13;17.20;99.90
5130;DHT22;2583;50.946;6.954;2022-08-21T04:42:47;17.20;99.90
5130;DHT22;2583;50.946;6.954;2022-08-21T04:45:33;17.20;99.90
5130;DHT22;2583;50.946;6.954;2022-08-21T04:48:03;17.20;99.90
5130;DHT22;2583;50.946;6.954;2022-08-21T04:53:28;17.20;99.90
5130;DHT22;2583;50.946;6.954;2022-08-21T04:56:01;17.20;99.90
5130;DHT22;2583;50.946;6.954;2022-08-21T04:58:29;17.20;99.90
5130;DHT22;2583;50.946;6.954;2022-08-21T05:00:56;17.20;99.90
5130;DHT22;2583;50.946;6.954;2022-08-21T05:03:24;17.20;99.90
5130;DHT22;2583;50.946;6.954;2022-08-21T05:05:51;17.20;99.90
5130;DHT22;2583;50.946;6.954;2022-08-21T05:08:22;17.20;99.90
5130;DHT22;2583;50.946;6.954;2022-08-21T05:10:50;17.10;99.90
5130;DHT22;2583;50.946;6.954;2022-08-21T05:13:17;17.10;99.90
5130;DHT22;2583;50.946;6.954;2022-08-21T05:15:44;17.10;99.90
5130;DHT22;2583;50.946;6.954;2022-08-21T05:18:11;17.10;99.90
5130;DHT22;2583;50.946;6.954;2022-08-21T05:20:38;17.10;99.90
5130;DHT22;2583;50.946;6.954;2022-08-21T05:23:11;17.10;99.90
5130;DHT22;2583;50.946;6.954;2022-08-21T05:25:38;17.10;99.90
5130;DHT22;2583;50.946;6.954;2022-08-21T05:28:05;17.10;99.90
5130;DHT22;2583;50.946;6.954;2022-08-21T05:30:34;17.10;99.90
5130;DHT22;2583;50.946;6.954;2022-08-21T05:33:02;17.10;99.90
5130;DHT22;2583;50.946;6.954;2022-08-21T05:35:30;17.20;99.90
5130;DHT22;2583;50.946;6.954;2022-08-21T05:38:00;17.20;99.90
5130;DHT22;2583;50.946;6.954;2022-08-21T05:40:27;17.20;99.90
5130;DHT22;2583;50.946;6.954;2022-08-21T05:42:55;17.30;99.90
5130;DHT22;2583;50.946;6.954;2022-08-21T05:45:30;17.30;99.90
5130;DHT22;2583;50.946;6.954;2022-08-21T05:48:23;17.30;99.90
5130;DHT22;2583;50.946;6.954;2022-08-21T05:50:51;17.40;99.90
5130;DHT22;2583;50.946;6.954;2022-08-21T05:53:20;17.40;99.90
5130;DHT22;2583;50.946;6.954;2022-08-21T05:55:47;17.40;99.90
5130;DHT22;2583;50.946;6.954;2022-08-21T05:58:16;17.50;99.90
5130;DHT22;2583;50.946;6.954;2022-08-21T06:00:45;17.40;99.90
5130;DHT22;2583;50.946;6.954;2022-08-21T06:03:16;17.50;99.90
5130;DHT22;2583;50.946;6.954;2022-08-21T06:05:44;17.50;99.90
5130;DHT22;2583;50.946;6.954;2022-08-21T06:08:12;17.50;99.90
5130;DHT22;2583;50.946;6.954;2022-08-21T06:10:39;17.50;99.90
5130;DHT22;2583;50.946;6.954;2022-08-21T06:13:06;17.50;99.90
5130;DHT22;2583;50.946;6.954;2022-08-21T06:15:34;17.60;99.90
5130;DHT22;2583;50.946;6.954;2022-08-21T06:18:00;17.60;99.90
5130;DHT22;2583;50.946;6.954;2022-08-21T06:20:27;17.70;99.90
5130;DHT22;2583;50.946;6.954;2022-08-21T06:22:54;17.70;99.90
5130;DHT22;2583;50.946;6.954;2022-08-21T06:25:21;17.80;99.90
5130;DHT22;2583;50.946;6.954;2022-08-21T06:27:49;17.80;99.90
5130;DHT22;2583;50.946;6.954;2022-08-21T06:30:17;17.80;99.90
5130;DHT22;2583;50.946;6.954;2022-08-21T06:32:44;17.90;99.90
5130;DHT22;2583;50.946;6.954;2022-08-21T06:35:11;17.80;99.90
5130;DHT22;2583;50.946;6.954;2022-08-21T06:37:37;17.90;99.90
5130;DHT22;2583;50.946;6.954;2022-08-21T06:40:05;18.00;99.90
5130;DHT22;2583;50.946;6.954;2022-08-21T06:42:39;18.00;99.90
5130;DHT22;2583;50.946;6.954;2022-08-21T06:45:09;18.10;99.90
5130;DHT22;2583;50.946;6.954;2022-08-21T06:47:36;18.20;99.90
5130;DHT22;2583;50.946;6.954;2022-08-21T06:50:04;18.20;99.90
5130;DHT22;2583;50.946;6.954;2022-08-21T06:52:31;18.20;99.90
5130;DHT22;2583;50.946;6.954;2022-08-21T06:54:58;18.30;99.90
5130;DHT22;2583;50.946;6.954;2022-08-21T06:57:25;18.30;99.90
5130;DHT22;2583;50.946;6.954;2022-08-21T06:59:52;18.40;99.90
5130;DHT22;2583;50.946;6.954;2022-08-21T07:02:18;18.50;99.90
5130;DHT22;2583;50.946;6.954;2022-08-21T07:04:45;18.50;99.90
5130;DHT22;2583;50.946;6.954;2022-08-21T07:07:12;18.60;99.90
5130;DHT22;2583;50.946;6.954;2022-08-21T07:09:39;18.60;99.90
5130;DHT22;2583;50.946;6.954;2022-08-21T07:12:06;18.70;99.90
5130;DHT22;2583;50.946;6.954;2022-08-21T07:14:33;18.80;99.90
5130;DHT22;2583;50.946;6.954;2022-08-21T07:17:00;18.90;99.90
5130;DHT22;2583;50.946;6.954;2022-08-21T07:19:27;19.00;99.60
5130;DHT22;2583;50.946;6.954;2022-08-21T07:21:58;19.00;99.00
5130;DHT22;2583;50.946;6.954;2022-08-21T07:24:25;19.20;97.90
5130;DHT22;2583;50.946;6.954;2022-08-21T07:26:52;19.30;98.60
5130;DHT22;2583;50.946;6.954;2022-08-21T07:29:19;19.40;97.10
5130;DHT22;2583;50.946;6.954;2022-08-21T07:31:46;19.50;96.10
5130;DHT22;2583;50.946;6.954;2022-08-21T07:34:13;19.50;96.10
5130;DHT22;2583;50.946;6.954;2022-08-21T07:36:40;19.60;96.00
5130;DHT22;2583;50.946;6.954;2022-08-21T07:39:06;19.70;95.90
5130;DHT22;2583;50.946;6.954;2022-08-21T07:41:34;19.70;95.60
5130;DHT22;2583;50.946;6.954;2022-08-21T07:44:02;19.80;93.80
5130;DHT22;2583;50.946;6.954;2022-08-21T07:46:32;19.80;93.80
5130;DHT22;2583;50.946;6.954;2022-08-21T07:48:59;19.90;93.20
5130;DHT22;2583;50.946;6.954;2022-08-21T07:51:27;19.90;92.70
5130;DHT22;2583;50.946;6.954;2022-08-21T07:53:56;20.00;92.40
5130;DHT22;2583;50.946;6.954;2022-08-21T07:56:24;20.10;93.20
5130;DHT22;2583;50.946;6.954;2022-08-21T07:58:51;20.30;90.40
5130;DHT22;2583;50.946;6.954;2022-08-21T08:01:18;20.40;87.40
5130;DHT22;2583;50.946;6.954;2022-08-21T08:03:46;20.50;84.40
5130;DHT22;2583;50.946;6.954;2022-08-21T08:06:13;20.70;79.10
5130;DHT22;2583;50.946;6.954;2022-08-21T08:08:41;20.90;78.00
5130;DHT22;2583;50.946;6.954;2022-08-21T08:11:10;21.10;75.50
5130;DHT22;2583;50.946;6.954;2022-08-21T08:13:42;21.30;70.50
5130;DHT22;2583;50.946;6.954;2022-08-21T08:16:10;21.40;64.80
5130;DHT22;2583;50.946;6.954;2022-08-21T08:18:37;21.60;62.50
5130;DHT22;2583;50.946;6.954;2022-08-21T08:21:05;21.80;59.60
5130;DHT22;2583;50.946;6.954;2022-08-21T08:23:32;21.90;58.50
5130;DHT22;2583;50.946;6.954;2022-08-21T08:25:59;22.00;54.90
5130;DHT22;2583;50.946;6.954;2022-08-21T08:28:26;22.10;52.50
5130;DHT22;2583;50.946;6.954;2022-08-21T08:30:53;22.20;53.10
5130;DHT22;2583;50.946;6.954;2022-08-21T08:33:21;22.20;52.40
5130;DHT22;2583;50.946;6.954;2022-08-21T08:35:49;22.30;50.70
5130;DHT22;2583;50.946;6.954;2022-08-21T08:38:18;22.20;50.30
5130;DHT22;2583;50.946;6.954;2022-08-21T08:41:16;22.20;49.90
5130;DHT22;2583;50.946;6.954;2022-08-21T08:43:56;22.20;50.30
5130;DHT22;2583;50.946;6.954;2022-08-21T08:46:46;22.30;49.90
5130;DHT22;2583;50.946;6.954;2022-08-21T08:49:18;22.40;49.60
5130;DHT22;2583;50.946;6.954;2022-08-21T08:54:49;22.70;48.80
5130;DHT22;2583;50.946;6.954;2022-08-21T08:57:20;22.70;46.70
5130;DHT22;2583;50.946;6.954;2022-08-21T08:59:56;22.80;46.60
5130;DHT22;2583;50.946;6.954;2022-08-21T09:02:25;23.10;45.80
5130;DHT22;2583;50.946;6.954;2022-08-21T09:04:54;23.30;43.80
5130;DHT22;2583;50.946;6.954;2022-08-21T09:10:29;23.40;42.10
5130;DHT22;2583;50.946;6.954;2022-08-21T09:13:09;23.60;41.40
5130;DHT22;2583;50.946;6.954;2022-08-21T09:15:54;23.70;40.20
5130;DHT22;2583;50.946;6.954;2022-08-21T09:27:08;23.60;39.80
5130;DHT22;2583;50.946;6.954;2022-08-21T09:29:41;23.60;40.00
5130;DHT22;2583;50.946;6.954;2022-08-21T09:32:25;23.70;39.60
5130;DHT22;2583;50.946;6.954;2022-08-21T09:35:15;23.80;39.20
5130;DHT22;2583;50.946;6.954;2022-08-21T09:38:04;24.00;38.90
5130;DHT22;2583;50.946;6.954;2022-08-21T09:40:37;23.90;37.60
5130;DHT22;2583;50.946;6.954;2022-08-21T09:45:41;24.00;37.70
5130;DHT22;2583;50.946;6.954;2022-08-21T09:50:40;24.20;37.00
5130;DHT22;2583;50.946;6.954;2022-08-21T09:55:55;24.20;36.10
5130;DHT22;2583;50.946;6.954;2022-08-21T09:58:44;24.40;36.20
5130;DHT22;2583;50.946;6.954;2022-08-21T10:01:23;24.40;35.80
5130;DHT22;2583;50.946;6.954;2022-08-21T10:04:05;24.50;35.50
5130;DHT22;2583;50.946;6.954;2022-08-21T10:06:33;24.60;35.00
5130;DHT22;2583;50.946;6.954;2022-08-21T10:11:31;24.60;35.40
5130;DHT22;2583;50.946;6.954;2022-08-21T10:14:02;24.60;34.80
5130;DHT22;2583;50.946;6.954;2022-08-21T10:24:54;24.80;33.30
5130;DHT22;2583;50.946;6.954;2022-08-21T10:30:21;25.00;32.80
5130;DHT22;2583;50.946;6.954;2022-08-21T10:33:03;25.20;32.60
5130;DHT22;2583;50.946;6.954;2022-08-21T10:42:05;25.50;31.50
5130;DHT22;2583;50.946;6.954;2022-08-21T10:55:18;25.60;29.70
5130;DHT22;2583;50.946;6.954;2022-08-21T10:57:51;25.40;29.30
5130;DHT22;2583;50.946;6.954;2022-08-21T11:00:21;25.30;29.10
5130;DHT22;2583;50.946;6.954;2022-08-21T11:03:11;25.50;29.40
5130;DHT22;2583;50.946;6.954;2022-08-21T11:05:51;25.50;29.60
5130;DHT22;2583;50.946;6.954;2022-08-21T11:08:29;25.60;29.40
5130;DHT22;2583;50.946;6.954;2022-08-21T11:11:08;25.70;28.90
5130;DHT22;2583;50.946;6.954;2022-08-21T11:14:00;25.80;29.10
5130;DHT22;2583;50.946;6.954;2022-08-21T11:17:07;25.70;29.00
5130;DHT22;2583;50.946;6.954;2022-08-21T11:20:06;25.80;28.60
5130;DHT22;2583;50.946;6.954;2022-08-21T11:22:48;25.80;27.90
5130;DHT22;2583;50.946;6.954;2022-08-21T11:25:27;25.70;27.70
5130;DHT22;2583;50.946;6.954;2022-08-21T11:28:08;25.70;27.90
5130;DHT22;2583;50.946;6.954;2022-08-21T11:36:49;25.80;28.50
5130;DHT22;2583;50.946;6.954;2022-08-21T11:45:27;25.90;28.00
5130;DHT22;2583;50.946;6.954;2022-08-21T11:48:11;26.10;27.60
5130;DHT22;2583;50.946;6.954;2022-08-21T11:50:42;26.30;27.00
5130;DHT22;2583;50.946;6.954;2022-08-21T11:53:18;26.40;27.20
5130;DHT22;2583;50.946;6.954;2022-08-21T11:58:28;26.50;26.30
5130;DHT22;2583;50.946;6.954;2022-08-21T12:01:19;26.40;26.30
5130;DHT22;2583;50.946;6.954;2022-08-21T12:04:06;26.50;26.60
5130;DHT22;2583;50.946;6.954;2022-08-21T12:06:38;26.70;25.80
5130;DHT22;2583;50.946;6.954;2022-08-21T12:09:32;26.70;26.10
5130;DHT22;2583;50.946;6.954;2022-08-21T12:12:11;26.80;26.00
5130;DHT22;2583;50.946;6.954;2022-08-21T12:14:41;26.80;25.20
5130;DHT22;2583;50.946;6.954;2022-08-21T12:17:18;27.10;25.20
5130;DHT22;2583;50.946;6.954;2022-08-21T12:20:02;27.50;24.50
5130;DHT22;2583;50.946;6.954;2022-08-21T12:22:47;27.60;24.30
5130;DHT22;2583;50.946;6.954;2022-08-21T12:25:19;27.60;24.20
5130;DHT22;2583;50.946;6.954;2022-08-21T12:27:50;27.50;24.10
5130;DHT22;2583;50.946;6.954;2022-08-21T12:33:02;27.70;23.80
5130;DHT22;2583;50.946;6.954;2022-08-21T12:35:38;28.00;23.50
5130;DHT22;2583;50.946;6.954;2022-08-21T12:38:13;27.60;23.00
5130;DHT22;2583;50.946;6.954;2022-08-21T12:40:48;27.70;24.10
5130;DHT22;2583;50.946;6.954;2022-08-21T12:43:27;27.60;23.50
5130;DHT22;2583;50.946;6.954;2022-08-21T12:45:56;27.30;23.70
5130;DHT22;2583;50.946;6.954;2022-08-21T12:48:31;27.10;24.10
5130;DHT22;2583;50.946;6.954;2022-08-21T12:51:18;27.40;24.10
5130;DHT22;2583;50.946;6.954;2022-08-21T12:53:55;27.70;23.20
5130;DHT22;2583;50.946;6.954;2022-08-21T12:56:31;27.80;23.40
5130;DHT22;2583;50.946;6.954;2022-08-21T12:59:11;27.80;22.90
5130;DHT22;2583;50.946;6.954;2022-08-21T13:01:59;28.20;22.60
5130;DHT22;2583;50.946;6.954;2022-08-21T13:04:39;28.60;22.00
5130;DHT22;2583;50.946;6.954;2022-08-21T13:07:09;28.70;22.10
5130;DHT22;2583;50.946;6.954;2022-08-21T13:09:49;28.70;21.70
5130;DHT22;2583;50.946;6.954;2022-08-21T13:12:18;28.90;21.50
5130;DHT22;2583;50.946;6.954;2022-08-21T13:14:48;29.00;21.70
5130;DHT22;2583;50.946;6.954;2022-08-21T13:17:20;28.60;21.80
5130;DHT22;2583;50.946;6.954;2022-08-21T13:20:02;28.10;21.80
5130;DHT22;2583;50.946;6.954;2022-08-21T13:22:30;28.50;21.80
5130;DHT22;2583;50.946;6.954;2022-08-21T13:25:01;28.80;21.20
5130;DHT22;2583;50.946;6.954;2022-08-21T13:27:33;29.30;21.00
5130;DHT22;2583;50.946;6.954;2022-08-21T13:30:07;29.90;20.80
5130;DHT22;2583;50.946;6.954;2022-08-21T13:32:37;30.30;20.00
5130;DHT22;2583;50.946;6.954;2022-08-21T13:37:42;30.70;19.10
5130;DHT22;2583;50.946;6.954;2022-08-21T13:40:12;30.60;18.70
5130;DHT22;2583;50.946;6.954;2022-08-21T13:42:43;30.60;18.50
5130;DHT22;2583;50.946;6.954;2022-08-21T13:45:16;30.90;18.20
5130;DHT22;2583;50.946;6.954;2022-08-21T13:47:43;31.30;17.80
5130;DHT22;2583;50.946;6.954;2022-08-21T13:50:14;31.90;17.40
5130;DHT22;2583;50.946;6.954;2022-08-21T13:52:57;31.60;17.40
5130;DHT22;2583;50.946;6.954;2022-08-21T13:55:25;32.00;17.20
5130;DHT22;2583;50.946;6.954;2022-08-21T13:58:02;32.50;17.10
5130;DHT22;2583;50.946;6.954;2022-08-21T14:00:32;32.40;16.70
5130;DHT22;2583;50.946;6.954;2022-08-21T14:03:08;32.40;16.30
5130;DHT22;2583;50.946;6.954;2022-08-21T14:05:44;32.50;16.10
5130;DHT22;2583;50.946;6.954;2022-08-21T14:08:32;32.30;16.20
5130;DHT22;2583;50.946;6.954;2022-08-21T14:11:00;32.20;17.30
5130;DHT22;2583;50.946;6.954;2022-08-21T14:13:43;32.60;15.80
5130;DHT22;2583;50.946;6.954;2022-08-21T14:18:50;32.20;16.30
5130;DHT22;2583;50.946;6.954;2022-08-21T14:21:38;31.70;16.00
5130;DHT22;2583;50.946;6.954;2022-08-21T14:24:38;31.10;16.30
5130;DHT22;2583;50.946;6.954;2022-08-21T14:27:07;30.10;17.50
5130;DHT22;2583;50.946;6.954;2022-08-21T14:29:38;29.60;18.00
5130;DHT22;2583;50.946;6.954;2022-08-21T14:32:25;29.30;18.30
5130;DHT22;2583;50.946;6.954;2022-08-21T14:34:53;28.80;18.80
5130;DHT22;2583;50.946;6.954;2022-08-21T14:37:24;28.30;19.40
5130;DHT22;2583;50.946;6.954;2022-08-21T14:39:50;27.90;19.90
5130;DHT22;2583;50.946;6.954;2022-08-21T14:42:18;27.50;20.70
5130;DHT22;2583;50.946;6.954;2022-08-21T14:44:45;27.30;20.50
5130;DHT22;2583;50.946;6.954;2022-08-21T14:47:12;27.10;20.70
5130;DHT22;2583;50.946;6.954;2022-08-21T14:49:39;27.10;20.70
5130;DHT22;2583;50.946;6.954;2022-08-21T14:52:06;27.00;20.70
5130;DHT22;2583;50.946;6.954;2022-08-21T14:54:33;27.00;20.90
5130;DHT22;2583;50.946;6.954;2022-08-21T14:57:06;26.80;21.00
5130;DHT22;2583;50.946;6.954;2022-08-21T14:59:36;26.70;21.20
5130;DHT22;2583;50.946;6.954;2022-08-21T15:02:03;26.60;21.40
5130;DHT22;2583;50.946;6.954;2022-08-21T15:04:32;26.60;21.40
5130;DHT22;2583;50.946;6.954;2022-08-21T15:06:59;26.60;21.30
5130;DHT22;2583;50.946;6.954;2022-08-21T15:09:26;26.60;21.20
5130;DHT22;2583;50.946;6.954;2022-08-21T15:11:56;26.60;20.80
5130;DHT22;2583;50.946;6.954;2022-08-21T15:14:26;26.50;20.90
5130;DHT22;2583;50.946;6.954;2022-08-21T15:16:54;26.50;21.30
5130;DHT22;2583;50.946;6.954;2022-08-21T15:19:21;26.40;21.00
5130;DHT22;2583;50.946;6.954;2022-08-21T15:21:48;26.40;21.20
5130;DHT22;2583;50.946;6.954;2022-08-21T15:24:15;26.20;21.40
5130;DHT22;2583;50.946;6.954;2022-08-21T15:26:43;26.20;21.60
5130;DHT22;2583;50.946;6.954;2022-08-21T15:29:10;26.10;21.70
5130;DHT22;2583;50.946;6.954;2022-08-21T15:34:19;26.00;22.10
5130;DHT22;2583;50.946;6.954;2022-08-21T15:36:50;26.10;22.60
5130;DHT22;2583;50.946;6.954;2022-08-21T15:39:21;26.00;22.50
5130;DHT22;2583;50.946;6.954;2022-08-21T15:41:50;25.90;22.30
5130;DHT22;2583;50.946;6.954;2022-08-21T15:44:17;25.80;22.50
5130;DHT22;2583;50.946;6.954;2022-08-21T15:46:45;25.90;22.30
5130;DHT22;2583;50.946;6.954;2022-08-21T15:49:12;25.90;22.50
5130;DHT22;2583;50.946;6.954;2022-08-21T15:51:39;25.90;23.10
5130;DHT22;2583;50.946;6.954;2022-08-21T15:54:09;25.90;22.70
5130;DHT22;2583;50.946;6.954;2022-08-21T15:56:38;26.00;22.80
5130;DHT22;2583;50.946;6.954;2022-08-21T15:59:09;26.10;22.50
5130;DHT22;2583;50.946;6.954;2022-08-21T16:01:39;26.20;22.40
5130;DHT22;2583;50.946;6.954;2022-08-21T16:04:15;26.00;22.30
5130;DHT22;2583;50.946;6.954;2022-08-21T16:06:44;26.10;22.80
5130;DHT22;2583;50.946;6.954;2022-08-21T16:09:20;26.20;22.20
5130;DHT22;2583;50.946;6.954;2022-08-21T16:11:47;26.20;22.00
5130;DHT22;2583;50.946;6.954;2022-08-21T16:14:15;26.30;22.00
5130;DHT22;2583;50.946;6.954;2022-08-21T16:16:42;26.40;22.30
5130;DHT22;2583;50.946;6.954;2022-08-21T16:19:10;26.40;21.60
5130;DHT22;2583;50.946;6.954;2022-08-21T16:21:38;26.50;22.10
5130;DHT22;2583;50.946;6.954;2022-08-21T16:24:05;26.60;21.80
5130;DHT22;2583;50.946;6.954;2022-08-21T16:26:32;26.60;21.50
5130;DHT22;2583;50.946;6.954;2022-08-21T16:29:00;26.70;21.20
5130;DHT22;2583;50.946;6.954;2022-08-21T16:31:27;26.70;21.20
5130;DHT22;2583;50.946;6.954;2022-08-21T16:33:55;26.70;21.30
5130;DHT22;2583;50.946;6.954;2022-08-21T16:36:24;26.50;21.20
5130;DHT22;2583;50.946;6.954;2022-08-21T16:38:56;26.40;21.00
5130;DHT22;2583;50.946;6.954;2022-08-21T16:41:26;26.40;21.10
5130;DHT22;2583;50.946;6.954;2022-08-21T16:43:54;26.30;21.20
5130;DHT22;2583;50.946;6.954;2022-08-21T16:46:22;26.20;21.20
5130;DHT22;2583;50.946;6.954;2022-08-21T16:48:48;26.10;21.70
5130;DHT22;2583;50.946;6.954;2022-08-21T16:51:16;26.00;21.80
5130;DHT22;2583;50.946;6.954;2022-08-21T16:53:43;26.10;21.60
5130;DHT22;2583;50.946;6.954;2022-08-21T16:56:13;26.00;21.70
5130;DHT22;2583;50.946;6.954;2022-08-21T16:58:42;25.90;21.70
5130;DHT22;2583;50.946;6.954;2022-08-21T17:01:12;25.80;21.90
5130;DHT22;2583;50.946;6.954;2022-08-21T17:03:44;25.80;22.40
5130;DHT22;2583;50.946;6.954;2022-08-21T17:06:13;25.80;22.90
5130;DHT22;2583;50.946;6.954;2022-08-21T17:08:40;25.70;22.60
5130;DHT22;2583;50.946;6.954;2022-08-21T17:11:14;25.60;22.80
5130;DHT22;2583;50.946;6.954;2022-08-21T17:14:06;25.50;23.20
5130;DHT22;2583;50.946;6.954;2022-08-21T17:16:34;25.40;23.30
5130;DHT22;2583;50.946;6.954;2022-08-21T17:19:00;25.30;23.60
5130;DHT22;2583;50.946;6.954;2022-08-21T17:21:27;25.20;23.80
5130;DHT22;2583;50.946;6.954;2022-08-21T17:23:54;25.20;24.00
5130;DHT22;2583;50.946;6.954;2022-08-21T17:26:22;25.10;24.20
5130;DHT22;2583;50.946;6.954;2022-08-21T17:28:49;25.10;24.30
5130;DHT22;2583;50.946;6.954;2022-08-21T17:31:20;25.10;24.30
5130;DHT22;2583;50.946;6.954;2022-08-21T17:33:50;25.10;24.50
5130;DHT22;2583;50.946;6.954;2022-08-21T17:36:21;24.90;24.50
5130;DHT22;2583;50.946;6.954;2022-08-21T17:38:48;24.90;24.60
5130;DHT22;2583;50.946;6.954;2022-08-21T17:41:16;24.80;24.70
5130;DHT22;2583;50.946;6.954;2022-08-21T17:43:43;24.80;25.00
5130;DHT22;2583;50.946;6.954;2022-08-21T17:46:16;24.70;24.90
5130;DHT22;2583;50.946;6.954;2022-08-21T17:48:44;24.60;24.80
5130;DHT22;2583;50.946;6.954;2022-08-21T17:51:13;24.50;24.80